Aérodrome :
LOGIN :

S'inscrire | Disclaimer

   EN    FR    IT 

 










Légende :    VFR   VFR Marginal   IFR   IFR Intensif   IFR Très Intensif
Visi : 
Plafond : 
>= 8 km
>= 3000ft
5 à 8 km
1000 à 3000 ft
1500m à 5 km
500 à 1000 ft
800 à 1500m
200 à 500 ft
< 800m
< 200 ft
Symboles :   Orages  Brouillard  Fortes neiges  Fortes précipitations  Vent > 20 kt
SIGMETs :   Divers  Orages  Givrage  Turbulence  Onde Orograph.  Cendres Volcan.







- Altitude de l'aérodrome : 1197 ft
- Code IATA : SPM


ETAD - Spangdahlem Ab

DERNIER METAR :
  • 231956Z AUTO 23013KT 9999 OVC008 06/05 A3018 RMK AO2 SLP222 T00610047 TSNO $

METARs EXPIRÉS :
  • 231856Z AUTO 23012KT 9999 OVC013 06/04 A3019 RMK AO2 SLP226 T00610038 TSNO $
  • 231821Z AUTO 23011KT 9999 OVC014 06/03 A3021 RMK AO2 SLP233 TSNO $
  • 231756Z AUTO 22008KT 9999 OVC018 06/04 A3020 RMK AO2 RAB02E11DZB11E22 CIG 017 RWY05 SLP229 P0000 60000 T00600035 10067 20056 55000 TSNO $
  • 231722Z AUTO 21009KT 9999 FEW013 OVC018 06/04 A3021 RMK AO2 RAB02E11DZB11E22 SLP233 TSNO $
  • 231702Z AUTO 22010KT 9999 -RA FEW013 OVC020 06/04 A3021 RMK AO2 RAB02 SLP233 TSNO $
  • 231701Z AUTO 22011KT 9999 FEW013 OVC020 06/04 A3021 RMK AO2 SLP233 TSNO $

TAF TAF ETAD
Valide du 23 à 19h jusqu'au 25 à 01h UTC


231901Z 2319/2501 21012KT 9999 BKN010 610702 QNH3018INS
BECMG 2323/2324 21009KT 9999 BKN015 QNH3011INS
BECMG 2410/2411 21012G20KT 9000 -SHRA OVC010 QNH3000INS
BECMG 2417/2418 22015G25KT 8000 -SHRA OVC015 QNH2997INS TX09/2415Z TN06/2319Z
Pas de NOTAMs connus pour ce terrain.



MET'MAP, la Météo Aéronautique d'un coup d'oeil ! - Copyright ORBIFLY Décembre 2007 - Disclaimer

ORBIFLY MET'MAP TEAM :

Programmation & Développement : Alexandra Zaïnal
Conception & Développement : Baudouin d'Aumeries
Co-Programmation & Développement : Marc-Olivier Méhu
Soutien technique & logistique : Manuel Goepfert

Contact : metmap@orbifly.com




SOURCES & CREDITS :

   NOAA